sensor_id;sensor_type;location;lat;lon;timestamp;P1;durP1;ratioP1;P2;durP2;ratioP2
12407;SDS011;6268;48.188;17.134;2023-04-03T00:01:37;2.70;;;2.50;;
12407;SDS011;6268;48.188;17.134;2023-04-03T00:04:05;3.00;;;2.80;;
12407;SDS011;6268;48.188;17.134;2023-04-03T00:06:36;2.80;;;2.60;;
12407;SDS011;6268;48.188;17.134;2023-04-03T00:09:05;2.80;;;2.60;;
12407;SDS011;6268;48.188;17.134;2023-04-03T00:11:36;3.53;;;2.57;;
12407;SDS011;6268;48.188;17.134;2023-04-03T00:14:04;2.67;;;2.47;;
12407;SDS011;6268;48.188;17.134;2023-04-03T00:16:33;3.40;;;3.17;;
12407;SDS011;6268;48.188;17.134;2023-04-03T00:19:02;3.00;;;2.80;;
12407;SDS011;6268;48.188;17.134;2023-04-03T00:21:31;2.80;;;2.60;;
12407;SDS011;6268;48.188;17.134;2023-04-03T00:24:01;2.53;;;2.42;;
12407;SDS011;6268;48.188;17.134;2023-04-03T00:26:30;3.00;;;2.72;;
12407;SDS011;6268;48.188;17.134;2023-04-03T00:28:59;2.72;;;2.53;;
12407;SDS011;6268;48.188;17.134;2023-04-03T00:31:28;3.20;;;3.00;;
12407;SDS011;6268;48.188;17.134;2023-04-03T00:33:57;2.80;;;2.60;;
12407;SDS011;6268;48.188;17.134;2023-04-03T00:36:26;3.07;;;2.87;;
12407;SDS011;6268;48.188;17.134;2023-04-03T00:38:55;3.20;;;2.90;;
12407;SDS011;6268;48.188;17.134;2023-04-03T00:41:26;2.50;;;2.40;;
12407;SDS011;6268;48.188;17.134;2023-04-03T00:43:55;3.00;;;2.80;;
12407;SDS011;6268;48.188;17.134;2023-04-03T00:46:23;3.00;;;2.80;;
12407;SDS011;6268;48.188;17.134;2023-04-03T00:48:52;2.73;;;2.57;;
12407;SDS011;6268;48.188;17.134;2023-04-03T00:51:22;2.60;;;2.40;;
12407;SDS011;6268;48.188;17.134;2023-04-03T00:53:54;2.63;;;2.53;;
12407;SDS011;6268;48.188;17.134;2023-04-03T00:56:29;3.00;;;2.70;;
12407;SDS011;6268;48.188;17.134;2023-04-03T00:59:01;2.63;;;2.47;;
12407;SDS011;6268;48.188;17.134;2023-04-03T01:01:34;2.90;;;2.70;;
12407;SDS011;6268;48.188;17.134;2023-04-03T01:04:04;2.57;;;2.37;;
12407;SDS011;6268;48.188;17.134;2023-04-03T01:06:52;2.63;;;2.53;;
12407;SDS011;6268;48.188;17.134;2023-04-03T01:09:24;2.73;;;2.60;;
12407;SDS011;6268;48.188;17.134;2023-04-03T01:11:55;2.53;;;2.40;;
12407;SDS011;6268;48.188;17.134;2023-04-03T01:14:42;2.43;;;2.33;;
12407;SDS011;6268;48.188;17.134;2023-04-03T01:17:26;2.93;;;2.73;;
12407;SDS011;6268;48.188;17.134;2023-04-03T01:23:42;2.77;;;2.57;;
12407;SDS011;6268;48.188;17.134;2023-04-03T01:26:32;2.93;;;2.60;;
12407;SDS011;6268;48.188;17.134;2023-04-03T01:29:03;3.20;;;3.00;;
12407;SDS011;6268;48.188;17.134;2023-04-03T01:31:43;3.00;;;2.80;;
12407;SDS011;6268;48.188;17.134;2023-04-03T01:34:18;3.03;;;2.47;;
12407;SDS011;6268;48.188;17.134;2023-04-03T01:36:48;3.00;;;2.80;;
12407;SDS011;6268;48.188;17.134;2023-04-03T01:39:17;2.83;;;2.73;;
12407;SDS011;6268;48.188;17.134;2023-04-03T01:41:47;3.90;;;3.60;;
12407;SDS011;6268;48.188;17.134;2023-04-03T01:44:16;3.03;;;2.83;;
12407;SDS011;6268;48.188;17.134;2023-04-03T01:46:48;3.10;;;2.90;;
12407;SDS011;6268;48.188;17.134;2023-04-03T01:49:16;2.90;;;2.70;;
12407;SDS011;6268;48.188;17.134;2023-04-03T01:51:45;3.10;;;2.90;;
12407;SDS011;6268;48.188;17.134;2023-04-03T01:54:14;3.03;;;2.83;;
12407;SDS011;6268;48.188;17.134;2023-04-03T01:56:43;3.27;;;3.07;;
12407;SDS011;6268;48.188;17.134;2023-04-03T01:59:11;2.80;;;2.60;;
12407;SDS011;6268;48.188;17.134;2023-04-03T02:01:43;3.47;;;3.17;;
12407;SDS011;6268;48.188;17.134;2023-04-03T02:04:13;3.53;;;3.30;;
12407;SDS011;6268;48.188;17.134;2023-04-03T02:06:42;3.47;;;3.17;;
12407;SDS011;6268;48.188;17.134;2023-04-03T02:09:11;3.50;;;3.20;;
12407;SDS011;6268;48.188;17.134;2023-04-03T02:11:40;3.60;;;3.30;;
12407;SDS011;6268;48.188;17.134;2023-04-03T02:14:09;3.17;;;2.97;;
12407;SDS011;6268;48.188;17.134;2023-04-03T02:16:38;3.60;;;3.30;;
12407;SDS011;6268;48.188;17.134;2023-04-03T02:19:07;3.77;;;3.40;;
12407;SDS011;6268;48.188;17.134;2023-04-03T02:21:37;3.80;;;3.50;;
12407;SDS011;6268;48.188;17.134;2023-04-03T02:24:07;3.10;;;2.90;;
12407;SDS011;6268;48.188;17.134;2023-04-03T02:26:36;3.50;;;3.20;;
12407;SDS011;6268;48.188;17.134;2023-04-03T02:29:04;3.37;;;3.17;;
12407;SDS011;6268;48.188;17.134;2023-04-03T02:31:33;3.87;;;3.57;;
12407;SDS011;6268;48.188;17.134;2023-04-03T02:34:02;4.37;;;3.40;;
12407;SDS011;6268;48.188;17.134;2023-04-03T02:36:31;4.03;;;3.73;;
12407;SDS011;6268;48.188;17.134;2023-04-03T02:39:01;4.30;;;3.90;;
12407;SDS011;6268;48.188;17.134;2023-04-03T02:41:30;3.73;;;3.53;;
12407;SDS011;6268;48.188;17.134;2023-04-03T02:44:01;3.60;;;3.40;;
12407;SDS011;6268;48.188;17.134;2023-04-03T02:46:32;3.77;;;3.50;;
12407;SDS011;6268;48.188;17.134;2023-04-03T02:49:01;4.40;;;4.00;;
12407;SDS011;6268;48.188;17.134;2023-04-03T02:51:30;4.30;;;4.00;;
12407;SDS011;6268;48.188;17.134;2023-04-03T02:54:00;4.30;;;3.90;;
12407;SDS011;6268;48.188;17.134;2023-04-03T02:56:29;3.93;;;3.40;;
12407;SDS011;6268;48.188;17.134;2023-04-03T02:58:58;4.50;;;4.20;;
12407;SDS011;6268;48.188;17.134;2023-04-03T03:01:27;4.27;;;3.97;;
12407;SDS011;6268;48.188;17.134;2023-04-03T03:03:58;4.97;;;4.57;;
12407;SDS011;6268;48.188;17.134;2023-04-03T03:06:28;4.80;;;4.40;;
12407;SDS011;6268;48.188;17.134;2023-04-03T03:08:57;5.20;;;4.80;;
12407;SDS011;6268;48.188;17.134;2023-04-03T03:11:27;4.50;;;4.10;;
12407;SDS011;6268;48.188;17.134;2023-04-03T03:13:56;4.00;;;3.70;;
12407;SDS011;6268;48.188;17.134;2023-04-03T03:16:25;4.53;;;4.17;;
12407;SDS011;6268;48.188;17.134;2023-04-03T03:18:54;4.13;;;3.80;;
12407;SDS011;6268;48.188;17.134;2023-04-03T03:21:24;4.07;;;3.77;;
12407;SDS011;6268;48.188;17.134;2023-04-03T03:23:53;4.03;;;3.73;;
12407;SDS011;6268;48.188;17.134;2023-04-03T03:26:22;3.67;;;3.37;;
12407;SDS011;6268;48.188;17.134;2023-04-03T03:28:53;3.97;;;3.67;;
12407;SDS011;6268;48.188;17.134;2023-04-03T03:31:21;3.50;;;3.30;;
12407;SDS011;6268;48.188;17.134;2023-04-03T03:33:51;3.60;;;3.30;;
12407;SDS011;6268;48.188;17.134;2023-04-03T03:36:19;3.93;;;3.53;;
12407;SDS011;6268;48.188;17.134;2023-04-03T03:38:48;3.90;;;3.33;;
12407;SDS011;6268;48.188;17.134;2023-04-03T03:41:17;4.83;;;4.43;;
12407;SDS011;6268;48.188;17.134;2023-04-03T03:43:46;6.00;;;5.50;;
12407;SDS011;6268;48.188;17.134;2023-04-03T03:46:16;6.33;;;5.70;;
12407;SDS011;6268;48.188;17.134;2023-04-03T03:48:45;10.57;;;8.67;;
12407;SDS011;6268;48.188;17.134;2023-04-03T03:51:14;11.33;;;9.73;;
12407;SDS011;6268;48.188;17.134;2023-04-03T03:53:43;5.70;;;5.00;;
12407;SDS011;6268;48.188;17.134;2023-04-03T03:56:12;4.70;;;4.40;;
12407;SDS011;6268;48.188;17.134;2023-04-03T03:58:40;4.43;;;4.03;;
12407;SDS011;6268;48.188;17.134;2023-04-03T04:01:09;4.23;;;3.93;;
12407;SDS011;6268;48.188;17.134;2023-04-03T04:03:39;4.23;;;3.83;;
12407;SDS011;6268;48.188;17.134;2023-04-03T04:06:08;4.53;;;4.20;;
12407;SDS011;6268;48.188;17.134;2023-04-03T04:08:37;4.43;;;4.13;;
12407;SDS011;6268;48.188;17.134;2023-04-03T04:11:06;4.70;;;4.30;;
12407;SDS011;6268;48.188;17.134;2023-04-03T04:13:35;4.70;;;4.40;;
12407;SDS011;6268;48.188;17.134;2023-04-03T04:16:05;5.90;;;5.30;;
12407;SDS011;6268;48.188;17.134;2023-04-03T04:18:34;4.80;;;4.40;;
12407;SDS011;6268;48.188;17.134;2023-04-03T04:21:05;5.63;;;5.13;;
12407;SDS011;6268;48.188;17.134;2023-04-03T04:23:33;4.50;;;4.10;;
12407;SDS011;6268;48.188;17.134;2023-04-03T04:26:02;4.90;;;4.60;;
12407;SDS011;6268;48.188;17.134;2023-04-03T04:28:31;5.83;;;4.67;;
12407;SDS011;6268;48.188;17.134;2023-04-03T04:31:00;6.00;;;5.40;;
12407;SDS011;6268;48.188;17.134;2023-04-03T04:33:29;6.20;;;5.23;;
12407;SDS011;6268;48.188;17.134;2023-04-03T04:35:58;4.53;;;4.23;;
12407;SDS011;6268;48.188;17.134;2023-04-03T04:38:29;10.23;;;7.50;;
12407;SDS011;6268;48.188;17.134;2023-04-03T04:40:57;6.27;;;5.67;;
12407;SDS011;6268;48.188;17.134;2023-04-03T04:43:26;5.50;;;4.97;;
12407;SDS011;6268;48.188;17.134;2023-04-03T04:46:02;5.37;;;4.90;;
12407;SDS011;6268;48.188;17.134;2023-04-03T04:48:32;5.50;;;4.93;;
12407;SDS011;6268;48.188;17.134;2023-04-03T04:51:02;5.30;;;4.90;;
12407;SDS011;6268;48.188;17.134;2023-04-03T04:53:34;6.23;;;5.67;;
12407;SDS011;6268;48.188;17.134;2023-04-03T04:56:03;5.87;;;5.17;;
12407;SDS011;6268;48.188;17.134;2023-04-03T04:58:33;5.47;;;4.87;;
12407;SDS011;6268;48.188;17.134;2023-04-03T05:01:02;6.47;;;5.60;;
12407;SDS011;6268;48.188;17.134;2023-04-03T05:03:34;11.97;;;6.23;;
12407;SDS011;6268;48.188;17.134;2023-04-03T05:06:03;6.43;;;5.00;;
12407;SDS011;6268;48.188;17.134;2023-04-03T05:08:34;8.50;;;5.60;;
12407;SDS011;6268;48.188;17.134;2023-04-03T05:11:03;8.07;;;5.60;;
12407;SDS011;6268;48.188;17.134;2023-04-03T05:13:33;7.33;;;6.50;;
12407;SDS011;6268;48.188;17.134;2023-04-03T05:16:03;7.40;;;5.87;;
12407;SDS011;6268;48.188;17.134;2023-04-03T05:18:33;6.10;;;5.40;;
12407;SDS011;6268;48.188;17.134;2023-04-03T05:21:02;5.17;;;4.77;;
12407;SDS011;6268;48.188;17.134;2023-04-03T05:23:31;5.33;;;4.60;;
12407;SDS011;6268;48.188;17.134;2023-04-03T05:26:02;8.23;;;6.32;;
12407;SDS011;6268;48.188;17.134;2023-04-03T05:28:32;5.85;;;4.22;;
12407;SDS011;6268;48.188;17.134;2023-04-03T05:31:01;5.03;;;4.53;;
12407;SDS011;6268;48.188;17.134;2023-04-03T05:33:32;4.80;;;4.27;;
12407;SDS011;6268;48.188;17.134;2023-04-03T05:36:02;4.82;;;4.43;;
12407;SDS011;6268;48.188;17.134;2023-04-03T05:38:35;5.32;;;4.82;;
12407;SDS011;6268;48.188;17.134;2023-04-03T05:41:04;6.47;;;4.27;;
12407;SDS011;6268;48.188;17.134;2023-04-03T05:43:32;4.30;;;3.90;;
12407;SDS011;6268;48.188;17.134;2023-04-03T05:46:04;5.10;;;4.15;;
12407;SDS011;6268;48.188;17.134;2023-04-03T05:48:39;4.40;;;4.10;;
12407;SDS011;6268;48.188;17.134;2023-04-03T05:51:09;3.65;;;3.35;;
12407;SDS011;6268;48.188;17.134;2023-04-03T05:53:46;4.15;;;3.88;;
12407;SDS011;6268;48.188;17.134;2023-04-03T05:56:18;5.97;;;4.73;;
12407;SDS011;6268;48.188;17.134;2023-04-03T05:58:47;4.03;;;3.60;;
12407;SDS011;6268;48.188;17.134;2023-04-03T06:01:16;4.15;;;3.25;;
12407;SDS011;6268;48.188;17.134;2023-04-03T06:03:45;4.80;;;4.30;;
12407;SDS011;6268;48.188;17.134;2023-04-03T06:06:16;4.43;;;4.03;;
12407;SDS011;6268;48.188;17.134;2023-04-03T06:08:46;4.10;;;3.80;;
12407;SDS011;6268;48.188;17.134;2023-04-03T06:11:15;4.67;;;4.13;;
12407;SDS011;6268;48.188;17.134;2023-04-03T06:13:45;4.80;;;4.20;;
12407;SDS011;6268;48.188;17.134;2023-04-03T06:16:15;3.93;;;3.63;;
12407;SDS011;6268;48.188;17.134;2023-04-03T06:18:46;4.20;;;3.90;;
12407;SDS011;6268;48.188;17.134;2023-04-03T06:21:15;5.47;;;4.50;;
12407;SDS011;6268;48.188;17.134;2023-04-03T06:23:44;5.70;;;4.13;;
12407;SDS011;6268;48.188;17.134;2023-04-03T06:26:19;9.13;;;4.43;;
12407;SDS011;6268;48.188;17.134;2023-04-03T06:28:48;4.57;;;4.28;;
12407;SDS011;6268;48.188;17.134;2023-04-03T06:31:17;4.57;;;4.18;;
12407;SDS011;6268;48.188;17.134;2023-04-03T06:33:47;5.00;;;4.45;;
12407;SDS011;6268;48.188;17.134;2023-04-03T06:36:17;7.90;;;3.95;;
12407;SDS011;6268;48.188;17.134;2023-04-03T06:38:49;4.10;;;3.78;;
12407;SDS011;6268;48.188;17.134;2023-04-03T06:41:18;3.80;;;3.50;;
12407;SDS011;6268;48.188;17.134;2023-04-03T06:43:47;3.05;;;2.85;;
12407;SDS011;6268;48.188;17.134;2023-04-03T06:46:17;3.40;;;2.85;;
12407;SDS011;6268;48.188;17.134;2023-04-03T06:48:48;4.82;;;3.20;;
12407;SDS011;6268;48.188;17.134;2023-04-03T06:51:18;3.67;;;3.28;;
12407;SDS011;6268;48.188;17.134;2023-04-03T06:53:51;4.05;;;3.22;;
12407;SDS011;6268;48.188;17.134;2023-04-03T06:56:23;3.20;;;2.95;;
12407;SDS011;6268;48.188;17.134;2023-04-03T06:58:52;3.47;;;2.50;;
12407;SDS011;6268;48.188;17.134;2023-04-03T07:01:24;2.88;;;2.67;;
12407;SDS011;6268;48.188;17.134;2023-04-03T07:03:55;4.50;;;3.05;;
12407;SDS011;6268;48.188;17.134;2023-04-03T07:06:25;2.90;;;2.70;;
12407;SDS011;6268;48.188;17.134;2023-04-03T07:08:55;3.58;;;3.05;;
12407;SDS011;6268;48.188;17.134;2023-04-03T07:11:24;3.28;;;2.97;;
12407;SDS011;6268;48.188;17.134;2023-04-03T07:13:54;3.63;;;2.78;;
12407;SDS011;6268;48.188;17.134;2023-04-03T07:16:23;3.38;;;2.83;;
12407;SDS011;6268;48.188;17.134;2023-04-03T07:18:52;4.78;;;2.83;;
12407;SDS011;6268;48.188;17.134;2023-04-03T07:21:20;2.95;;;2.75;;
12407;SDS011;6268;48.188;17.134;2023-04-03T07:23:49;3.00;;;2.70;;
12407;SDS011;6268;48.188;17.134;2023-04-03T07:26:20;3.38;;;2.70;;
12407;SDS011;6268;48.188;17.134;2023-04-03T07:28:50;4.90;;;2.63;;
12407;SDS011;6268;48.188;17.134;2023-04-03T07:31:18;6.22;;;4.65;;
12407;SDS011;6268;48.188;17.134;2023-04-03T07:33:47;2.72;;;2.47;;
12407;SDS011;6268;48.188;17.134;2023-04-03T07:36:17;2.80;;;2.60;;
12407;SDS011;6268;48.188;17.134;2023-04-03T07:38:48;2.92;;;2.22;;
12407;SDS011;6268;48.188;17.134;2023-04-03T07:41:17;2.30;;;2.20;;
12407;SDS011;6268;48.188;17.134;2023-04-03T07:43:49;2.33;;;2.10;;
12407;SDS011;6268;48.188;17.134;2023-04-03T07:46:18;3.03;;;2.20;;
12407;SDS011;6268;48.188;17.134;2023-04-03T07:48:47;2.47;;;2.28;;
12407;SDS011;6268;48.188;17.134;2023-04-03T07:51:16;4.03;;;1.92;;
12407;SDS011;6268;48.188;17.134;2023-04-03T07:53:45;7.05;;;2.88;;
12407;SDS011;6268;48.188;17.134;2023-04-03T07:56:16;2.10;;;1.98;;
12407;SDS011;6268;48.188;17.134;2023-04-03T07:58:46;3.72;;;2.55;;
12407;SDS011;6268;48.188;17.134;2023-04-03T08:01:15;4.63;;;2.40;;
12407;SDS011;6268;48.188;17.134;2023-04-03T08:03:44;7.50;;;2.50;;
12407;SDS011;6268;48.188;17.134;2023-04-03T08:06:13;3.38;;;2.38;;
12407;SDS011;6268;48.188;17.134;2023-04-03T08:08:44;3.72;;;2.85;;
12407;SDS011;6268;48.188;17.134;2023-04-03T08:11:13;2.35;;;2.15;;
12407;SDS011;6268;48.188;17.134;2023-04-03T08:13:42;4.30;;;2.58;;
12407;SDS011;6268;48.188;17.134;2023-04-03T08:16:14;3.75;;;2.97;;
12407;SDS011;6268;48.188;17.134;2023-04-03T08:18:45;5.30;;;4.80;;
12407;SDS011;6268;48.188;17.134;2023-04-03T08:21:14;4.38;;;3.90;;
12407;SDS011;6268;48.188;17.134;2023-04-03T08:23:43;3.15;;;2.60;;
12407;SDS011;6268;48.188;17.134;2023-04-03T08:26:12;5.65;;;1.90;;
12407;SDS011;6268;48.188;17.134;2023-04-03T08:28:47;4.95;;;1.92;;
12407;SDS011;6268;48.188;17.134;2023-04-03T08:31:18;1.90;;;1.80;;
12407;SDS011;6268;48.188;17.134;2023-04-03T08:33:47;2.42;;;2.20;;
12407;SDS011;6268;48.188;17.134;2023-04-03T08:36:17;4.22;;;2.20;;
12407;SDS011;6268;48.188;17.134;2023-04-03T08:38:50;3.35;;;2.13;;
12407;SDS011;6268;48.188;17.134;2023-04-03T08:41:24;2.25;;;2.05;;
12407;SDS011;6268;48.188;17.134;2023-04-03T08:44:02;2.45;;;2.20;;
12407;SDS011;6268;48.188;17.134;2023-04-03T08:46:46;3.15;;;2.17;;
12407;SDS011;6268;48.188;17.134;2023-04-03T08:49:39;2.63;;;1.98;;
12407;SDS011;6268;48.188;17.134;2023-04-03T08:52:15;2.28;;;2.10;;
12407;SDS011;6268;48.188;17.134;2023-04-03T08:54:51;3.40;;;2.55;;
12407;SDS011;6268;48.188;17.134;2023-04-03T08:57:30;3.55;;;2.47;;
12407;SDS011;6268;48.188;17.134;2023-04-03T09:00:03;3.00;;;2.80;;
12407;SDS011;6268;48.188;17.134;2023-04-03T09:02:44;3.65;;;2.15;;
12407;SDS011;6268;48.188;17.134;2023-04-03T09:05:16;2.28;;;2.03;;
12407;SDS011;6268;48.188;17.134;2023-04-03T09:07:50;6.80;;;3.35;;
12407;SDS011;6268;48.188;17.134;2023-04-03T09:10:28;2.35;;;2.20;;
12407;SDS011;6268;48.188;17.134;2023-04-03T09:13:04;4.57;;;1.83;;
12407;SDS011;6268;48.188;17.134;2023-04-03T09:15:40;12.43;;;1.45;;
12407;SDS011;6268;48.188;17.134;2023-04-03T09:18:15;3.45;;;1.90;;
12407;SDS011;6268;48.188;17.134;2023-04-03T09:20:51;2.33;;;1.70;;
12407;SDS011;6268;48.188;17.134;2023-04-03T09:23:30;3.05;;;2.53;;
12407;SDS011;6268;48.188;17.134;2023-04-03T09:26:09;2.90;;;2.00;;
12407;SDS011;6268;48.188;17.134;2023-04-03T09:28:45;2.58;;;2.35;;
12407;SDS011;6268;48.188;17.134;2023-04-03T09:31:19;2.45;;;2.25;;
12407;SDS011;6268;48.188;17.134;2023-04-03T09:33:52;2.78;;;1.98;;
12407;SDS011;6268;48.188;17.134;2023-04-03T09:39:13;2.80;;;2.60;;
12407;SDS011;6268;48.188;17.134;2023-04-03T09:41:56;2.88;;;2.50;;
12407;SDS011;6268;48.188;17.134;2023-04-03T09:44:29;2.80;;;2.10;;
12407;SDS011;6268;48.188;17.134;2023-04-03T09:47:02;3.78;;;2.40;;
12407;SDS011;6268;48.188;17.134;2023-04-03T09:49:51;1.63;;;1.52;;
12407;SDS011;6268;48.188;17.134;2023-04-03T09:52:47;2.75;;;2.10;;
12407;SDS011;6268;48.188;17.134;2023-04-03T09:55:19;5.65;;;1.90;;
12407;SDS011;6268;48.188;17.134;2023-04-03T09:57:54;2.17;;;1.98;;
12407;SDS011;6268;48.188;17.134;2023-04-03T10:00:26;1.77;;;1.63;;
12407;SDS011;6268;48.188;17.134;2023-04-03T10:03:00;7.28;;;2.20;;
12407;SDS011;6268;48.188;17.134;2023-04-03T10:05:33;2.05;;;1.95;;
12407;SDS011;6268;48.188;17.134;2023-04-03T10:08:09;2.13;;;2.03;;
12407;SDS011;6268;48.188;17.134;2023-04-03T10:11:04;6.00;;;2.22;;
12407;SDS011;6268;48.188;17.134;2023-04-03T10:13:49;3.17;;;1.75;;
12407;SDS011;6268;48.188;17.134;2023-04-03T10:16:21;2.90;;;2.13;;
12407;SDS011;6268;48.188;17.134;2023-04-03T10:19:04;2.30;;;1.80;;
12407;SDS011;6268;48.188;17.134;2023-04-03T10:21:59;4.88;;;2.17;;
12407;SDS011;6268;48.188;17.134;2023-04-03T10:24:35;2.50;;;2.30;;
12407;SDS011;6268;48.188;17.134;2023-04-03T10:27:24;2.28;;;2.08;;
12407;SDS011;6268;48.188;17.134;2023-04-03T10:30:10;2.50;;;2.33;;
12407;SDS011;6268;48.188;17.134;2023-04-03T10:32:58;2.50;;;2.28;;
12407;SDS011;6268;48.188;17.134;2023-04-03T10:35:42;4.60;;;2.58;;
12407;SDS011;6268;48.188;17.134;2023-04-03T10:38:28;3.63;;;2.10;;
12407;SDS011;6268;48.188;17.134;2023-04-03T10:41:07;1.90;;;1.80;;
12407;SDS011;6268;48.188;17.134;2023-04-03T10:43:49;5.50;;;2.53;;
12407;SDS011;6268;48.188;17.134;2023-04-03T10:46:27;2.90;;;2.08;;
12407;SDS011;6268;48.188;17.134;2023-04-03T10:49:11;2.00;;;1.90;;
12407;SDS011;6268;48.188;17.134;2023-04-03T10:52:02;2.17;;;2.08;;
12407;SDS011;6268;48.188;17.134;2023-04-03T10:54:43;2.30;;;2.10;;
12407;SDS011;6268;48.188;17.134;2023-04-03T10:57:24;6.10;;;2.10;;
12407;SDS011;6268;48.188;17.134;2023-04-03T10:59:55;3.03;;;2.15;;
12407;SDS011;6268;48.188;17.134;2023-04-03T11:02:30;2.95;;;2.70;;
12407;SDS011;6268;48.188;17.134;2023-04-03T11:05:08;5.30;;;2.83;;
12407;SDS011;6268;48.188;17.134;2023-04-03T11:08:00;5.18;;;2.50;;
12407;SDS011;6268;48.188;17.134;2023-04-03T11:10:42;2.33;;;2.22;;
12407;SDS011;6268;48.188;17.134;2023-04-03T11:13:14;4.38;;;2.45;;
12407;SDS011;6268;48.188;17.134;2023-04-03T11:15:49;2.90;;;2.30;;
12407;SDS011;6268;48.188;17.134;2023-04-03T11:18:22;4.35;;;2.03;;
12407;SDS011;6268;48.188;17.134;2023-04-03T11:21:00;2.88;;;2.65;;
12407;SDS011;6268;48.188;17.134;2023-04-03T11:23:36;2.88;;;2.47;;
12407;SDS011;6268;48.188;17.134;2023-04-03T11:26:17;2.35;;;2.15;;
12407;SDS011;6268;48.188;17.134;2023-04-03T11:28:52;2.45;;;2.28;;
12407;SDS011;6268;48.188;17.134;2023-04-03T11:31:26;4.50;;;2.35;;
12407;SDS011;6268;48.188;17.134;2023-04-03T11:34:14;2.70;;;2.50;;
12407;SDS011;6268;48.188;17.134;2023-04-03T11:37:01;10.32;;;7.97;;
12407;SDS011;6268;48.188;17.134;2023-04-03T11:39:35;8.93;;;2.97;;
12407;SDS011;6268;48.188;17.134;2023-04-03T11:42:17;3.38;;;2.53;;
12407;SDS011;6268;48.188;17.134;2023-04-03T11:48:02;2.40;;;2.00;;
12407;SDS011;6268;48.188;17.134;2023-04-03T11:50:49;3.08;;;2.65;;
12407;SDS011;6268;48.188;17.134;2023-04-03T11:53:26;2.55;;;2.35;;
12407;SDS011;6268;48.188;17.134;2023-04-03T11:56:03;3.78;;;2.88;;
12407;SDS011;6268;48.188;17.134;2023-04-03T11:59:23;4.53;;;2.83;;
12407;SDS011;6268;48.188;17.134;2023-04-03T12:01:54;4.20;;;3.83;;
12407;SDS011;6268;48.188;17.134;2023-04-03T12:04:26;4.22;;;3.20;;
12407;SDS011;6268;48.188;17.134;2023-04-03T12:12:28;3.03;;;2.45;;
12407;SDS011;6268;48.188;17.134;2023-04-03T12:22:04;2.97;;;2.78;;
12407;SDS011;6268;48.188;17.134;2023-04-03T12:24:40;3.08;;;2.78;;
12407;SDS011;6268;48.188;17.134;2023-04-03T12:27:17;5.43;;;3.42;;
12407;SDS011;6268;48.188;17.134;2023-04-03T12:29:59;5.30;;;2.88;;
12407;SDS011;6268;48.188;17.134;2023-04-03T12:32:46;3.33;;;3.00;;
12407;SDS011;6268;48.188;17.134;2023-04-03T12:35:40;3.53;;;3.10;;
12407;SDS011;6268;48.188;17.134;2023-04-03T12:38:30;4.65;;;3.42;;
12407;SDS011;6268;48.188;17.134;2023-04-03T12:41:23;3.85;;;2.72;;
12407;SDS011;6268;48.188;17.134;2023-04-03T12:44:09;3.13;;;2.85;;
12407;SDS011;6268;48.188;17.134;2023-04-03T12:47:00;3.28;;;2.70;;
12407;SDS011;6268;48.188;17.134;2023-04-03T12:49:38;4.53;;;2.65;;
12407;SDS011;6268;48.188;17.134;2023-04-03T12:52:17;7.53;;;3.67;;
12407;SDS011;6268;48.188;17.134;2023-04-03T12:54:59;4.88;;;4.47;;
12407;SDS011;6268;48.188;17.134;2023-04-03T12:57:30;3.80;;;3.38;;
12407;SDS011;6268;48.188;17.134;2023-04-03T13:00:00;4.78;;;3.25;;
12407;SDS011;6268;48.188;17.134;2023-04-03T13:02:49;4.95;;;4.30;;
12407;SDS011;6268;48.188;17.134;2023-04-03T13:05:19;3.42;;;3.13;;
12407;SDS011;6268;48.188;17.134;2023-04-03T13:07:52;3.40;;;3.00;;
12407;SDS011;6268;48.188;17.134;2023-04-03T13:10:28;4.50;;;3.00;;
12407;SDS011;6268;48.188;17.134;2023-04-03T13:12:58;5.03;;;2.90;;
12407;SDS011;6268;48.188;17.134;2023-04-03T13:15:40;2.92;;;2.70;;
12407;SDS011;6268;48.188;17.134;2023-04-03T13:21:06;3.72;;;2.60;;
12407;SDS011;6268;48.188;17.134;2023-04-03T13:23:44;4.55;;;3.95;;
12407;SDS011;6268;48.188;17.134;2023-04-03T13:26:24;4.70;;;3.60;;
12407;SDS011;6268;48.188;17.134;2023-04-03T13:28:56;4.75;;;3.90;;
12407;SDS011;6268;48.188;17.134;2023-04-03T13:31:29;2.70;;;2.50;;
12407;SDS011;6268;48.188;17.134;2023-04-03T13:34:02;2.55;;;2.33;;
12407;SDS011;6268;48.188;17.134;2023-04-03T13:36:56;3.70;;;2.53;;
12407;SDS011;6268;48.188;17.134;2023-04-03T13:39:30;3.30;;;3.00;;
12407;SDS011;6268;48.188;17.134;2023-04-03T13:42:01;2.88;;;2.67;;
12407;SDS011;6268;48.188;17.134;2023-04-03T13:44:45;3.40;;;2.28;;
12407;SDS011;6268;48.188;17.134;2023-04-03T13:47:15;2.40;;;2.17;;
12407;SDS011;6268;48.188;17.134;2023-04-03T13:49:58;2.60;;;2.30;;
12407;SDS011;6268;48.188;17.134;2023-04-03T13:52:33;2.63;;;2.53;;
12407;SDS011;6268;48.188;17.134;2023-04-03T13:55:15;2.58;;;2.38;;
12407;SDS011;6268;48.188;17.134;2023-04-03T13:57:53;2.97;;;2.67;;
12407;SDS011;6268;48.188;17.134;2023-04-03T14:00:31;2.40;;;2.17;;
12407;SDS011;6268;48.188;17.134;2023-04-03T14:03:12;2.70;;;2.50;;
12407;SDS011;6268;48.188;17.134;2023-04-03T14:05:46;3.78;;;2.40;;
12407;SDS011;6268;48.188;17.134;2023-04-03T14:08:16;2.25;;;2.15;;
12407;SDS011;6268;48.188;17.134;2023-04-03T14:10:54;5.32;;;2.47;;
12407;SDS011;6268;48.188;17.134;2023-04-03T14:13:23;9.38;;;4.00;;
12407;SDS011;6268;48.188;17.134;2023-04-03T14:15:52;2.05;;;1.90;;
12407;SDS011;6268;48.188;17.134;2023-04-03T14:18:25;3.05;;;1.80;;
12407;SDS011;6268;48.188;17.134;2023-04-03T14:20:54;1.55;;;1.45;;
12407;SDS011;6268;48.188;17.134;2023-04-03T14:23:25;5.15;;;1.90;;
12407;SDS011;6268;48.188;17.134;2023-04-03T14:25:53;2.63;;;2.40;;
12407;SDS011;6268;48.188;17.134;2023-04-03T14:28:22;2.65;;;2.10;;
12407;SDS011;6268;48.188;17.134;2023-04-03T14:30:52;1.90;;;1.70;;
12407;SDS011;6268;48.188;17.134;2023-04-03T14:33:21;1.65;;;1.55;;
12407;SDS011;6268;48.188;17.134;2023-04-03T14:35:50;4.10;;;2.10;;
12407;SDS011;6268;48.188;17.134;2023-04-03T14:38:25;4.53;;;2.00;;
12407;SDS011;6268;48.188;17.134;2023-04-03T14:40:57;2.30;;;2.15;;
12407;SDS011;6268;48.188;17.134;2023-04-03T14:43:41;2.72;;;2.00;;
12407;SDS011;6268;48.188;17.134;2023-04-03T14:46:12;3.03;;;2.72;;
12407;SDS011;6268;48.188;17.134;2023-04-03T14:48:44;2.28;;;2.08;;
12407;SDS011;6268;48.188;17.134;2023-04-03T14:51:14;2.55;;;2.00;;
12407;SDS011;6268;48.188;17.134;2023-04-03T14:53:45;3.65;;;3.15;;
12407;SDS011;6268;48.188;17.134;2023-04-03T14:56:18;4.80;;;2.95;;
12407;SDS011;6268;48.188;17.134;2023-04-03T14:58:51;4.22;;;3.42;;
12407;SDS011;6268;48.188;17.134;2023-04-03T15:01:24;5.25;;;3.20;;
12407;SDS011;6268;48.188;17.134;2023-04-03T15:03:55;4.15;;;3.67;;
12407;SDS011;6268;48.188;17.134;2023-04-03T15:06:24;5.38;;;2.88;;
12407;SDS011;6268;48.188;17.134;2023-04-03T15:08:55;1.70;;;1.60;;
12407;SDS011;6268;48.188;17.134;2023-04-03T15:11:24;2.33;;;2.10;;
12407;SDS011;6268;48.188;17.134;2023-04-03T15:13:53;3.40;;;2.20;;
12407;SDS011;6268;48.188;17.134;2023-04-03T15:16:22;2.22;;;1.85;;
12407;SDS011;6268;48.188;17.134;2023-04-03T15:18:51;2.40;;;2.20;;
12407;SDS011;6268;48.188;17.134;2023-04-03T15:21:20;2.77;;;1.80;;
12407;SDS011;6268;48.188;17.134;2023-04-03T15:23:48;3.47;;;2.13;;
12407;SDS011;6268;48.188;17.134;2023-04-03T15:26:19;2.63;;;1.80;;
12407;SDS011;6268;48.188;17.134;2023-04-03T15:28:48;2.83;;;1.75;;
12407;SDS011;6268;48.188;17.134;2023-04-03T15:31:17;3.22;;;2.85;;
12407;SDS011;6268;48.188;17.134;2023-04-03T15:33:45;2.38;;;1.70;;
12407;SDS011;6268;48.188;17.134;2023-04-03T15:36:14;1.75;;;1.58;;
12407;SDS011;6268;48.188;17.134;2023-04-03T15:38:48;2.10;;;1.83;;
12407;SDS011;6268;48.188;17.134;2023-04-03T15:41:18;5.03;;;1.85;;
12407;SDS011;6268;48.188;17.134;2023-04-03T15:43:47;2.05;;;1.80;;
12407;SDS011;6268;48.188;17.134;2023-04-03T15:46:16;2.33;;;1.75;;
12407;SDS011;6268;48.188;17.134;2023-04-03T15:48:45;4.85;;;4.28;;